sensor_id;sensor_type;location;lat;lon;timestamp;temperature;humidity
10419;DHT22;5256;48.728;9.140;2022-10-16T00:01:25;13.70;99.90
10419;DHT22;5256;48.728;9.140;2022-10-16T00:03:51;13.70;99.90
10419;DHT22;5256;48.728;9.140;2022-10-16T00:06:19;13.60;99.90
10419;DHT22;5256;48.728;9.140;2022-10-16T00:08:45;13.70;99.90
10419;DHT22;5256;48.728;9.140;2022-10-16T00:11:16;13.70;99.90
10419;DHT22;5256;48.728;9.140;2022-10-16T00:13:43;13.60;99.90
10419;DHT22;5256;48.728;9.140;2022-10-16T00:16:09;13.60;99.90
10419;DHT22;5256;48.728;9.140;2022-10-16T00:18:36;13.50;99.90
10419;DHT22;5256;48.728;9.140;2022-10-16T00:21:14;13.50;99.90
10419;DHT22;5256;48.728;9.140;2022-10-16T00:23:40;13.40;99.90
10419;DHT22;5256;48.728;9.140;2022-10-16T00:26:08;13.40;99.90
10419;DHT22;5256;48.728;9.140;2022-10-16T00:28:35;13.30;99.90
10419;DHT22;5256;48.728;9.140;2022-10-16T00:31:09;13.30;99.90
10419;DHT22;5256;48.728;9.140;2022-10-16T00:33:36;13.20;99.90
10419;DHT22;5256;48.728;9.140;2022-10-16T00:36:04;13.20;99.90
10419;DHT22;5256;48.728;9.140;2022-10-16T00:38:30;13.20;99.90
10419;DHT22;5256;48.728;9.140;2022-10-16T00:40:56;13.10;99.90
10419;DHT22;5256;48.728;9.140;2022-10-16T00:43:51;13.00;99.90
10419;DHT22;5256;48.728;9.140;2022-10-16T00:46:34;13.00;99.90
10419;DHT22;5256;48.728;9.140;2022-10-16T00:49:08;13.00;99.90
10419;DHT22;5256;48.728;9.140;2022-10-16T00:54:04;13.00;99.90
10419;DHT22;5256;48.728;9.140;2022-10-16T00:56:30;12.90;99.90
10419;DHT22;5256;48.728;9.140;2022-10-16T00:58:57;12.90;99.90
10419;DHT22;5256;48.728;9.140;2022-10-16T01:01:23;12.90;99.90
10419;DHT22;5256;48.728;9.140;2022-10-16T01:03:49;13.00;99.90
10419;DHT22;5256;48.728;9.140;2022-10-16T01:06:25;13.00;99.90
10419;DHT22;5256;48.728;9.140;2022-10-16T01:11:44;13.00;99.90
10419;DHT22;5256;48.728;9.140;2022-10-16T01:14:26;13.00;99.90
10419;DHT22;5256;48.728;9.140;2022-10-16T01:16:58;13.00;99.90
10419;DHT22;5256;48.728;9.140;2022-10-16T01:22:03;13.00;99.90
10419;DHT22;5256;48.728;9.140;2022-10-16T01:24:39;13.00;99.90
10419;DHT22;5256;48.728;9.140;2022-10-16T01:27:12;13.00;99.90
10419;DHT22;5256;48.728;9.140;2022-10-16T01:35:14;12.90;99.90
10419;DHT22;5256;48.728;9.140;2022-10-16T01:38:00;12.90;99.90
10419;DHT22;5256;48.728;9.140;2022-10-16T01:40:28;12.90;99.90
10419;DHT22;5256;48.728;9.140;2022-10-16T01:43:12;12.90;99.90
10419;DHT22;5256;48.728;9.140;2022-10-16T01:45:41;12.90;99.90
10419;DHT22;5256;48.728;9.140;2022-10-16T01:48:12;12.90;99.90
10419;DHT22;5256;48.728;9.140;2022-10-16T01:50:41;12.90;99.90
10419;DHT22;5256;48.728;9.140;2022-10-16T01:53:12;13.00;99.90
10419;DHT22;5256;48.728;9.140;2022-10-16T01:55:40;13.00;99.90
10419;DHT22;5256;48.728;9.140;2022-10-16T01:58:11;13.10;99.90
10419;DHT22;5256;48.728;9.140;2022-10-16T02:00:39;13.10;99.90
10419;DHT22;5256;48.728;9.140;2022-10-16T02:03:07;13.10;99.90
10419;DHT22;5256;48.728;9.140;2022-10-16T02:05:42;13.00;99.90
10419;DHT22;5256;48.728;9.140;2022-10-16T02:08:09;13.10;99.90
10419;DHT22;5256;48.728;9.140;2022-10-16T02:10:36;13.10;99.90
10419;DHT22;5256;48.728;9.140;2022-10-16T02:15:34;13.10;99.90
10419;DHT22;5256;48.728;9.140;2022-10-16T02:18:00;13.10;99.90
10419;DHT22;5256;48.728;9.140;2022-10-16T02:20:28;13.10;99.90
10419;DHT22;5256;48.728;9.140;2022-10-16T02:22:58;13.20;99.90
10419;DHT22;5256;48.728;9.140;2022-10-16T02:25:32;13.20;99.90
10419;DHT22;5256;48.728;9.140;2022-10-16T02:30:43;13.20;99.90
10419;DHT22;5256;48.728;9.140;2022-10-16T02:33:11;13.20;99.90
10419;DHT22;5256;48.728;9.140;2022-10-16T02:35:40;13.20;99.90
10419;DHT22;5256;48.728;9.140;2022-10-16T02:38:07;13.20;99.90
10419;DHT22;5256;48.728;9.140;2022-10-16T02:40:33;13.20;99.90
10419;DHT22;5256;48.728;9.140;2022-10-16T02:42:59;13.20;99.90
10419;DHT22;5256;48.728;9.140;2022-10-16T02:45:24;13.10;99.90
10419;DHT22;5256;48.728;9.140;2022-10-16T02:47:50;13.10;99.90
10419;DHT22;5256;48.728;9.140;2022-10-16T02:50:16;13.10;99.90
10419;DHT22;5256;48.728;9.140;2022-10-16T02:52:42;13.10;99.90
10419;DHT22;5256;48.728;9.140;2022-10-16T02:55:08;13.10;99.90
10419;DHT22;5256;48.728;9.140;2022-10-16T02:57:33;13.00;99.90
10419;DHT22;5256;48.728;9.140;2022-10-16T03:00:00;13.00;99.90
10419;DHT22;5256;48.728;9.140;2022-10-16T03:02:26;13.00;99.90
10419;DHT22;5256;48.728;9.140;2022-10-16T03:04:51;13.00;99.90
10419;DHT22;5256;48.728;9.140;2022-10-16T03:07:17;13.00;99.90
10419;DHT22;5256;48.728;9.140;2022-10-16T03:09:43;13.00;99.90
10419;DHT22;5256;48.728;9.140;2022-10-16T03:12:09;13.00;99.90
10419;DHT22;5256;48.728;9.140;2022-10-16T03:14:37;13.00;99.90
10419;DHT22;5256;48.728;9.140;2022-10-16T03:17:02;13.00;99.90
10419;DHT22;5256;48.728;9.140;2022-10-16T03:19:28;13.00;99.90
10419;DHT22;5256;48.728;9.140;2022-10-16T03:21:53;13.00;99.90
10419;DHT22;5256;48.728;9.140;2022-10-16T03:24:19;13.00;99.90
10419;DHT22;5256;48.728;9.140;2022-10-16T03:26:44;13.10;99.90
10419;DHT22;5256;48.728;9.140;2022-10-16T03:29:10;13.10;99.90
10419;DHT22;5256;48.728;9.140;2022-10-16T03:31:36;13.10;99.90
10419;DHT22;5256;48.728;9.140;2022-10-16T03:34:01;13.10;99.90
10419;DHT22;5256;48.728;9.140;2022-10-16T03:36:27;13.10;99.90
10419;DHT22;5256;48.728;9.140;2022-10-16T03:38:52;13.20;99.90
10419;DHT22;5256;48.728;9.140;2022-10-16T03:41:18;13.10;99.90
10419;DHT22;5256;48.728;9.140;2022-10-16T03:43:43;13.10;99.90
10419;DHT22;5256;48.728;9.140;2022-10-16T03:46:09;13.10;99.90
10419;DHT22;5256;48.728;9.140;2022-10-16T03:48:34;13.10;99.90
10419;DHT22;5256;48.728;9.140;2022-10-16T03:51:00;13.00;99.90
10419;DHT22;5256;48.728;9.140;2022-10-16T03:53:25;13.00;99.90
10419;DHT22;5256;48.728;9.140;2022-10-16T03:55:51;13.00;99.90
10419;DHT22;5256;48.728;9.140;2022-10-16T03:58:17;12.90;99.90
10419;DHT22;5256;48.728;9.140;2022-10-16T04:00:43;12.90;99.90
10419;DHT22;5256;48.728;9.140;2022-10-16T04:03:10;12.90;99.90
10419;DHT22;5256;48.728;9.140;2022-10-16T04:05:35;12.90;99.90
10419;DHT22;5256;48.728;9.140;2022-10-16T04:08:01;12.90;99.90
10419;DHT22;5256;48.728;9.140;2022-10-16T04:10:27;12.90;99.90
10419;DHT22;5256;48.728;9.140;2022-10-16T04:12:52;12.90;99.90
10419;DHT22;5256;48.728;9.140;2022-10-16T04:15:20;12.90;99.90
10419;DHT22;5256;48.728;9.140;2022-10-16T04:17:45;12.90;99.90
10419;DHT22;5256;48.728;9.140;2022-10-16T04:20:11;12.90;99.90
10419;DHT22;5256;48.728;9.140;2022-10-16T04:22:36;12.90;99.90
10419;DHT22;5256;48.728;9.140;2022-10-16T04:25:02;12.90;99.90
10419;DHT22;5256;48.728;9.140;2022-10-16T04:27:28;12.90;99.90
10419;DHT22;5256;48.728;9.140;2022-10-16T04:29:54;12.90;99.90
10419;DHT22;5256;48.728;9.140;2022-10-16T04:32:19;12.90;99.90
10419;DHT22;5256;48.728;9.140;2022-10-16T04:34:45;12.90;99.90
10419;DHT22;5256;48.728;9.140;2022-10-16T04:37:10;13.00;99.90
10419;DHT22;5256;48.728;9.140;2022-10-16T04:39:36;13.00;99.90
10419;DHT22;5256;48.728;9.140;2022-10-16T04:42:02;13.10;99.90
10419;DHT22;5256;48.728;9.140;2022-10-16T04:44:27;13.10;99.90
10419;DHT22;5256;48.728;9.140;2022-10-16T04:46:53;13.10;99.90
10419;DHT22;5256;48.728;9.140;2022-10-16T04:49:18;13.00;99.90
10419;DHT22;5256;48.728;9.140;2022-10-16T04:51:44;13.00;99.90
10419;DHT22;5256;48.728;9.140;2022-10-16T04:54:10;13.00;99.90
10419;DHT22;5256;48.728;9.140;2022-10-16T04:56:35;13.00;99.90
10419;DHT22;5256;48.728;9.140;2022-10-16T04:59:09;13.00;99.90
10419;DHT22;5256;48.728;9.140;2022-10-16T05:01:34;13.00;99.90
10419;DHT22;5256;48.728;9.140;2022-10-16T05:04:00;13.00;99.90
10419;DHT22;5256;48.728;9.140;2022-10-16T05:06:26;13.00;99.90
10419;DHT22;5256;48.728;9.140;2022-10-16T05:08:52;13.00;99.90
10419;DHT22;5256;48.728;9.140;2022-10-16T05:11:17;13.00;99.90
10419;DHT22;5256;48.728;9.140;2022-10-16T05:13:43;12.90;99.90
10419;DHT22;5256;48.728;9.140;2022-10-16T05:16:08;13.00;99.90
10419;DHT22;5256;48.728;9.140;2022-10-16T05:18:34;13.00;99.90
10419;DHT22;5256;48.728;9.140;2022-10-16T05:21:00;13.00;99.90
10419;DHT22;5256;48.728;9.140;2022-10-16T05:23:25;13.00;99.90
10419;DHT22;5256;48.728;9.140;2022-10-16T05:25:57;13.10;99.90
10419;DHT22;5256;48.728;9.140;2022-10-16T05:28:27;13.10;99.90
10419;DHT22;5256;48.728;9.140;2022-10-16T05:30:53;13.10;99.90
10419;DHT22;5256;48.728;9.140;2022-10-16T05:33:23;13.00;99.90
10419;DHT22;5256;48.728;9.140;2022-10-16T05:35:50;13.00;99.90
10419;DHT22;5256;48.728;9.140;2022-10-16T05:38:16;12.90;99.90
10419;DHT22;5256;48.728;9.140;2022-10-16T05:40:42;12.90;99.90
10419;DHT22;5256;48.728;9.140;2022-10-16T05:43:07;12.80;99.90
10419;DHT22;5256;48.728;9.140;2022-10-16T05:45:33;12.80;99.90
10419;DHT22;5256;48.728;9.140;2022-10-16T05:47:59;12.70;99.90
10419;DHT22;5256;48.728;9.140;2022-10-16T05:50:25;12.70;99.90
10419;DHT22;5256;48.728;9.140;2022-10-16T05:52:51;12.80;99.90
10419;DHT22;5256;48.728;9.140;2022-10-16T05:55:16;12.80;99.90
10419;DHT22;5256;48.728;9.140;2022-10-16T05:57:42;12.80;99.90
10419;DHT22;5256;48.728;9.140;2022-10-16T06:00:08;12.80;99.90
10419;DHT22;5256;48.728;9.140;2022-10-16T06:02:33;12.80;99.90
10419;DHT22;5256;48.728;9.140;2022-10-16T06:04:59;12.90;99.90
10419;DHT22;5256;48.728;9.140;2022-10-16T06:07:24;12.90;99.90
10419;DHT22;5256;48.728;9.140;2022-10-16T06:09:53;13.10;99.90
10419;DHT22;5256;48.728;9.140;2022-10-16T06:12:19;13.10;99.90
10419;DHT22;5256;48.728;9.140;2022-10-16T06:14:46;13.10;99.90
10419;DHT22;5256;48.728;9.140;2022-10-16T06:17:13;13.10;99.90
10419;DHT22;5256;48.728;9.140;2022-10-16T06:19:39;13.20;99.90
10419;DHT22;5256;48.728;9.140;2022-10-16T06:22:05;13.20;99.90
10419;DHT22;5256;48.728;9.140;2022-10-16T06:24:30;13.40;99.90
10419;DHT22;5256;48.728;9.140;2022-10-16T06:26:56;13.40;99.90
10419;DHT22;5256;48.728;9.140;2022-10-16T06:29:21;13.40;99.90
10419;DHT22;5256;48.728;9.140;2022-10-16T06:31:47;13.40;99.90
10419;DHT22;5256;48.728;9.140;2022-10-16T06:34:12;13.40;99.90
10419;DHT22;5256;48.728;9.140;2022-10-16T06:36:39;13.50;99.90
10419;DHT22;5256;48.728;9.140;2022-10-16T06:39:05;13.60;99.90
10419;DHT22;5256;48.728;9.140;2022-10-16T06:41:33;13.70;99.90
10419;DHT22;5256;48.728;9.140;2022-10-16T06:43:58;13.80;99.90
10419;DHT22;5256;48.728;9.140;2022-10-16T06:46:24;13.80;99.90
10419;DHT22;5256;48.728;9.140;2022-10-16T06:48:50;13.90;99.90
10419;DHT22;5256;48.728;9.140;2022-10-16T06:51:18;14.00;99.90
10419;DHT22;5256;48.728;9.140;2022-10-16T06:53:46;14.10;99.90
10419;DHT22;5256;48.728;9.140;2022-10-16T06:56:25;14.20;99.90
10419;DHT22;5256;48.728;9.140;2022-10-16T06:58:52;14.20;99.90
10419;DHT22;5256;48.728;9.140;2022-10-16T07:01:20;14.30;99.90
10419;DHT22;5256;48.728;9.140;2022-10-16T07:03:47;14.30;99.90
10419;DHT22;5256;48.728;9.140;2022-10-16T07:06:15;14.30;99.90
10419;DHT22;5256;48.728;9.140;2022-10-16T07:08:43;14.40;99.90
10419;DHT22;5256;48.728;9.140;2022-10-16T07:11:11;14.40;99.90
10419;DHT22;5256;48.728;9.140;2022-10-16T07:13:38;14.50;99.90
10419;DHT22;5256;48.728;9.140;2022-10-16T07:18:34;14.70;99.90
10419;DHT22;5256;48.728;9.140;2022-10-16T07:21:20;14.70;99.90
10419;DHT22;5256;48.728;9.140;2022-10-16T07:23:58;14.80;99.90
10419;DHT22;5256;48.728;9.140;2022-10-16T07:26:26;14.90;99.90
10419;DHT22;5256;48.728;9.140;2022-10-16T07:28:51;14.90;99.90
10419;DHT22;5256;48.728;9.140;2022-10-16T07:31:19;14.90;99.90
10419;DHT22;5256;48.728;9.140;2022-10-16T07:33:45;14.90;99.90
10419;DHT22;5256;48.728;9.140;2022-10-16T07:36:13;14.90;99.90
10419;DHT22;5256;48.728;9.140;2022-10-16T07:38:39;14.80;99.90
10419;DHT22;5256;48.728;9.140;2022-10-16T07:41:06;14.90;99.90
10419;DHT22;5256;48.728;9.140;2022-10-16T07:43:33;15.00;99.90
10419;DHT22;5256;48.728;9.140;2022-10-16T07:45:59;15.10;99.90
10419;DHT22;5256;48.728;9.140;2022-10-16T07:48:30;15.20;99.90
10419;DHT22;5256;48.728;9.140;2022-10-16T07:51:03;15.20;99.90
10419;DHT22;5256;48.728;9.140;2022-10-16T07:53:30;15.30;99.90
10419;DHT22;5256;48.728;9.140;2022-10-16T07:56:05;15.30;99.90
10419;DHT22;5256;48.728;9.140;2022-10-16T07:58:32;15.30;99.90
10419;DHT22;5256;48.728;9.140;2022-10-16T08:00:58;15.30;99.90
10419;DHT22;5256;48.728;9.140;2022-10-16T08:03:25;15.30;99.90
10419;DHT22;5256;48.728;9.140;2022-10-16T08:05:51;15.30;99.90
10419;DHT22;5256;48.728;9.140;2022-10-16T08:08:17;15.40;99.90
10419;DHT22;5256;48.728;9.140;2022-10-16T08:10:43;15.50;99.90
10419;DHT22;5256;48.728;9.140;2022-10-16T08:13:09;15.70;99.90
10419;DHT22;5256;48.728;9.140;2022-10-16T08:15:35;15.80;99.90
10419;DHT22;5256;48.728;9.140;2022-10-16T08:18:02;16.00;99.90
10419;DHT22;5256;48.728;9.140;2022-10-16T08:20:29;16.20;99.90
10419;DHT22;5256;48.728;9.140;2022-10-16T08:22:55;16.40;99.90
10419;DHT22;5256;48.728;9.140;2022-10-16T08:25:24;16.70;99.90
10419;DHT22;5256;48.728;9.140;2022-10-16T08:27:50;17.00;99.90
10419;DHT22;5256;48.728;9.140;2022-10-16T08:30:17;17.20;99.90
10419;DHT22;5256;48.728;9.140;2022-10-16T08:32:43;17.50;99.90
10419;DHT22;5256;48.728;9.140;2022-10-16T08:35:10;17.60;99.90
10419;DHT22;5256;48.728;9.140;2022-10-16T08:37:36;17.70;99.90
10419;DHT22;5256;48.728;9.140;2022-10-16T08:40:03;17.90;99.90
10419;DHT22;5256;48.728;9.140;2022-10-16T08:48:40;18.10;99.90
10419;DHT22;5256;48.728;9.140;2022-10-16T08:51:18;18.30;99.90
10419;DHT22;5256;48.728;9.140;2022-10-16T08:56:15;18.20;99.90
10419;DHT22;5256;48.728;9.140;2022-10-16T08:58:42;18.00;99.90
10419;DHT22;5256;48.728;9.140;2022-10-16T09:01:14;18.10;99.90
10419;DHT22;5256;48.728;9.140;2022-10-16T09:06:25;18.20;99.90
10419;DHT22;5256;48.728;9.140;2022-10-16T09:09:11;18.10;99.90
10419;DHT22;5256;48.728;9.140;2022-10-16T09:19:53;18.80;99.90
10419;DHT22;5256;48.728;9.140;2022-10-16T09:22:26;19.10;99.90
10419;DHT22;5256;48.728;9.140;2022-10-16T09:24:59;19.30;99.90
10419;DHT22;5256;48.728;9.140;2022-10-16T09:27:26;19.50;99.90
10419;DHT22;5256;48.728;9.140;2022-10-16T09:29:51;19.70;99.90
10419;DHT22;5256;48.728;9.140;2022-10-16T09:32:20;19.70;99.90
10419;DHT22;5256;48.728;9.140;2022-10-16T09:34:49;19.70;99.90
10419;DHT22;5256;48.728;9.140;2022-10-16T09:37:19;19.80;99.90
10419;DHT22;5256;48.728;9.140;2022-10-16T09:39:50;20.20;99.90
10419;DHT22;5256;48.728;9.140;2022-10-16T09:42:27;20.30;99.90
10419;DHT22;5256;48.728;9.140;2022-10-16T09:44:56;20.50;99.90
10419;DHT22;5256;48.728;9.140;2022-10-16T09:47:30;20.40;99.90
10419;DHT22;5256;48.728;9.140;2022-10-16T09:52:25;20.40;99.90
10419;DHT22;5256;48.728;9.140;2022-10-16T09:54:56;20.50;99.90
10419;DHT22;5256;48.728;9.140;2022-10-16T09:57:22;21.00;99.90
10419;DHT22;5256;48.728;9.140;2022-10-16T09:59:58;21.00;99.90
10419;DHT22;5256;48.728;9.140;2022-10-16T10:02:37;20.90;99.90
10419;DHT22;5256;48.728;9.140;2022-10-16T10:05:06;21.00;99.90
10419;DHT22;5256;48.728;9.140;2022-10-16T10:07:44;21.00;99.90
10419;DHT22;5256;48.728;9.140;2022-10-16T10:10:33;21.20;99.90
10419;DHT22;5256;48.728;9.140;2022-10-16T10:12:59;21.50;99.90
10419;DHT22;5256;48.728;9.140;2022-10-16T10:15:32;21.50;99.90
10419;DHT22;5256;48.728;9.140;2022-10-16T10:17:58;21.50;99.90
10419;DHT22;5256;48.728;9.140;2022-10-16T10:22:49;21.60;99.90
10419;DHT22;5256;48.728;9.140;2022-10-16T10:25:42;21.50;99.90
10419;DHT22;5256;48.728;9.140;2022-10-16T10:28:39;21.60;99.90
10419;DHT22;5256;48.728;9.140;2022-10-16T10:31:29;21.60;99.90
10419;DHT22;5256;48.728;9.140;2022-10-16T10:36:48;21.60;99.90
10419;DHT22;5256;48.728;9.140;2022-10-16T10:39:43;21.70;99.90
10419;DHT22;5256;48.728;9.140;2022-10-16T10:42:23;21.80;99.90
10419;DHT22;5256;48.728;9.140;2022-10-16T10:45:16;21.90;99.90
10419;DHT22;5256;48.728;9.140;2022-10-16T10:50:46;22.30;99.90
10419;DHT22;5256;48.728;9.140;2022-10-16T10:56:06;22.20;99.90
10419;DHT22;5256;48.728;9.140;2022-10-16T11:01:13;22.00;99.90
10419;DHT22;5256;48.728;9.140;2022-10-16T11:06:57;22.00;99.90
10419;DHT22;5256;48.728;9.140;2022-10-16T11:09:27;22.10;99.90
10419;DHT22;5256;48.728;9.140;2022-10-16T11:12:09;22.10;99.90
10419;DHT22;5256;48.728;9.140;2022-10-16T11:14:50;22.30;99.90
10419;DHT22;5256;48.728;9.140;2022-10-16T11:17:52;22.00;99.90
10419;DHT22;5256;48.728;9.140;2022-10-16T11:20:28;22.20;99.90
10419;DHT22;5256;48.728;9.140;2022-10-16T11:23:00;22.20;99.90
10419;DHT22;5256;48.728;9.140;2022-10-16T11:25:30;22.20;99.90
10419;DHT22;5256;48.728;9.140;2022-10-16T11:28:18;22.30;99.90
10419;DHT22;5256;48.728;9.140;2022-10-16T11:30:49;22.20;99.90
10419;DHT22;5256;48.728;9.140;2022-10-16T11:35:57;22.10;99.90
10419;DHT22;5256;48.728;9.140;2022-10-16T11:38:29;22.10;99.90
10419;DHT22;5256;48.728;9.140;2022-10-16T11:41:00;22.00;99.90
10419;DHT22;5256;48.728;9.140;2022-10-16T11:43:38;22.10;99.90
10419;DHT22;5256;48.728;9.140;2022-10-16T11:46:13;22.00;99.90
10419;DHT22;5256;48.728;9.140;2022-10-16T11:48:48;21.90;99.90
10419;DHT22;5256;48.728;9.140;2022-10-16T11:54:29;21.90;99.90
10419;DHT22;5256;48.728;9.140;2022-10-16T11:57:01;21.90;99.90
10419;DHT22;5256;48.728;9.140;2022-10-16T11:59:44;22.10;99.90
10419;DHT22;5256;48.728;9.140;2022-10-16T12:08:14;22.40;99.90
10419;DHT22;5256;48.728;9.140;2022-10-16T12:10:44;22.60;99.90
10419;DHT22;5256;48.728;9.140;2022-10-16T12:13:38;22.80;99.90
10419;DHT22;5256;48.728;9.140;2022-10-16T12:18:37;22.90;99.90
10419;DHT22;5256;48.728;9.140;2022-10-16T12:21:03;23.10;99.90
10419;DHT22;5256;48.728;9.140;2022-10-16T12:23:37;23.30;99.90
10419;DHT22;5256;48.728;9.140;2022-10-16T12:26:04;23.60;99.90
10419;DHT22;5256;48.728;9.140;2022-10-16T12:28:31;23.70;99.90
10419;DHT22;5256;48.728;9.140;2022-10-16T12:31:06;23.60;99.90
10419;DHT22;5256;48.728;9.140;2022-10-16T12:33:40;23.50;99.90
10419;DHT22;5256;48.728;9.140;2022-10-16T12:36:26;23.50;99.90
10419;DHT22;5256;48.728;9.140;2022-10-16T12:38:53;23.50;99.90
10419;DHT22;5256;48.728;9.140;2022-10-16T12:43:53;23.60;99.90
10419;DHT22;5256;48.728;9.140;2022-10-16T12:46:21;23.60;99.90
10419;DHT22;5256;48.728;9.140;2022-10-16T12:48:48;23.60;99.90
10419;DHT22;5256;48.728;9.140;2022-10-16T12:56:44;23.20;99.90
10419;DHT22;5256;48.728;9.140;2022-10-16T13:05:09;22.70;99.90
10419;DHT22;5256;48.728;9.140;2022-10-16T13:07:49;22.60;99.90
10419;DHT22;5256;48.728;9.140;2022-10-16T13:10:24;22.80;99.90
10419;DHT22;5256;48.728;9.140;2022-10-16T13:18:33;22.80;99.90
10419;DHT22;5256;48.728;9.140;2022-10-16T13:21:33;22.70;99.90
10419;DHT22;5256;48.728;9.140;2022-10-16T13:24:20;22.70;99.90
10419;DHT22;5256;48.728;9.140;2022-10-16T13:27:01;22.80;99.90
10419;DHT22;5256;48.728;9.140;2022-10-16T13:29:31;22.80;99.90
10419;DHT22;5256;48.728;9.140;2022-10-16T13:31:59;22.80;99.90
10419;DHT22;5256;48.728;9.140;2022-10-16T13:34:26;22.90;99.90
10419;DHT22;5256;48.728;9.140;2022-10-16T13:36:53;23.00;99.90
10419;DHT22;5256;48.728;9.140;2022-10-16T13:39:29;23.10;99.90
10419;DHT22;5256;48.728;9.140;2022-10-16T13:44:36;23.30;99.90
10419;DHT22;5256;48.728;9.140;2022-10-16T13:47:05;23.40;99.90
10419;DHT22;5256;48.728;9.140;2022-10-16T13:49:30;23.50;99.90
10419;DHT22;5256;48.728;9.140;2022-10-16T13:51:57;23.50;99.90
10419;DHT22;5256;48.728;9.140;2022-10-16T13:54:24;23.50;99.90
10419;DHT22;5256;48.728;9.140;2022-10-16T13:56:51;23.50;99.90
10419;DHT22;5256;48.728;9.140;2022-10-16T13:59:32;23.30;99.90
10419;DHT22;5256;48.728;9.140;2022-10-16T14:01:58;23.20;99.90
10419;DHT22;5256;48.728;9.140;2022-10-16T14:04:29;23.10;99.90
10419;DHT22;5256;48.728;9.140;2022-10-16T14:06:57;23.00;99.90
10419;DHT22;5256;48.728;9.140;2022-10-16T14:09:30;22.90;99.90
10419;DHT22;5256;48.728;9.140;2022-10-16T14:11:59;22.80;99.90
10419;DHT22;5256;48.728;9.140;2022-10-16T14:14:29;22.80;99.90
10419;DHT22;5256;48.728;9.140;2022-10-16T14:16:58;22.80;99.90
10419;DHT22;5256;48.728;9.140;2022-10-16T14:19:28;22.80;99.90
10419;DHT22;5256;48.728;9.140;2022-10-16T14:21:54;22.80;99.90
10419;DHT22;5256;48.728;9.140;2022-10-16T14:24:32;22.70;99.90
10419;DHT22;5256;48.728;9.140;2022-10-16T14:26:59;22.80;99.90
10419;DHT22;5256;48.728;9.140;2022-10-16T14:29:27;22.80;99.90
10419;DHT22;5256;48.728;9.140;2022-10-16T14:34:30;22.80;99.90
10419;DHT22;5256;48.728;9.140;2022-10-16T14:37:17;22.80;99.90
10419;DHT22;5256;48.728;9.140;2022-10-16T14:39:50;22.70;99.90
10419;DHT22;5256;48.728;9.140;2022-10-16T14:42:16;22.80;99.90
10419;DHT22;5256;48.728;9.140;2022-10-16T14:44:44;22.80;99.90
10419;DHT22;5256;48.728;9.140;2022-10-16T14:47:13;22.80;99.90
10419;DHT22;5256;48.728;9.140;2022-10-16T14:49:41;22.80;99.90
10419;DHT22;5256;48.728;9.140;2022-10-16T14:52:11;22.80;99.90
10419;DHT22;5256;48.728;9.140;2022-10-16T14:54:37;22.80;99.90
10419;DHT22;5256;48.728;9.140;2022-10-16T14:57:03;22.80;99.90
10419;DHT22;5256;48.728;9.140;2022-10-16T14:59:36;22.80;99.90
10419;DHT22;5256;48.728;9.140;2022-10-16T15:02:25;22.80;99.90
10419;DHT22;5256;48.728;9.140;2022-10-16T15:04:52;22.80;99.90
10419;DHT22;5256;48.728;9.140;2022-10-16T15:07:18;22.70;99.90
10419;DHT22;5256;48.728;9.140;2022-10-16T15:09:43;22.70;99.90
10419;DHT22;5256;48.728;9.140;2022-10-16T15:12:09;22.60;99.90
10419;DHT22;5256;48.728;9.140;2022-10-16T15:14:34;22.60;99.90
10419;DHT22;5256;48.728;9.140;2022-10-16T15:17:00;22.50;99.90
10419;DHT22;5256;48.728;9.140;2022-10-16T15:19:26;22.40;99.90
10419;DHT22;5256;48.728;9.140;2022-10-16T15:21:51;22.30;99.90
10419;DHT22;5256;48.728;9.140;2022-10-16T15:24:18;22.10;99.90
10419;DHT22;5256;48.728;9.140;2022-10-16T15:26:43;22.10;99.90
10419;DHT22;5256;48.728;9.140;2022-10-16T15:29:11;22.00;99.90
10419;DHT22;5256;48.728;9.140;2022-10-16T15:31:37;21.90;99.90
10419;DHT22;5256;48.728;9.140;2022-10-16T15:34:03;21.60;99.90
10419;DHT22;5256;48.728;9.140;2022-10-16T15:36:35;21.50;99.90
10419;DHT22;5256;48.728;9.140;2022-10-16T15:39:13;21.50;99.90
10419;DHT22;5256;48.728;9.140;2022-10-16T15:41:39;21.40;99.90
10419;DHT22;5256;48.728;9.140;2022-10-16T15:44:05;21.20;99.90
10419;DHT22;5256;48.728;9.140;2022-10-16T15:46:30;21.10;99.90
10419;DHT22;5256;48.728;9.140;2022-10-16T15:48:59;21.10;99.90
10419;DHT22;5256;48.728;9.140;2022-10-16T15:51:25;20.90;99.90
10419;DHT22;5256;48.728;9.140;2022-10-16T15:53:57;20.80;99.90
10419;DHT22;5256;48.728;9.140;2022-10-16T15:56:22;20.80;99.90
10419;DHT22;5256;48.728;9.140;2022-10-16T15:58:54;20.60;99.90
10419;DHT22;5256;48.728;9.140;2022-10-16T16:01:20;20.50;99.90
10419;DHT22;5256;48.728;9.140;2022-10-16T16:03:45;20.40;99.90
10419;DHT22;5256;48.728;9.140;2022-10-16T16:06:12;20.30;99.90
10419;DHT22;5256;48.728;9.140;2022-10-16T16:08:39;20.20;99.90
10419;DHT22;5256;48.728;9.140;2022-10-16T16:11:08;20.10;99.90
10419;DHT22;5256;48.728;9.140;2022-10-16T16:13:34;19.90;99.90
10419;DHT22;5256;48.728;9.140;2022-10-16T16:16:00;19.70;99.90
10419;DHT22;5256;48.728;9.140;2022-10-16T16:18:26;19.50;99.90
10419;DHT22;5256;48.728;9.140;2022-10-16T16:20:53;19.40;99.90
10419;DHT22;5256;48.728;9.140;2022-10-16T16:23:20;19.20;99.90
10419;DHT22;5256;48.728;9.140;2022-10-16T16:26:06;19.10;99.90
10419;DHT22;5256;48.728;9.140;2022-10-16T16:28:31;19.00;99.90
10419;DHT22;5256;48.728;9.140;2022-10-16T16:30:57;18.90;99.90
10419;DHT22;5256;48.728;9.140;2022-10-16T16:33:22;18.70;99.90
10419;DHT22;5256;48.728;9.140;2022-10-16T16:35:49;18.60;99.90
10419;DHT22;5256;48.728;9.140;2022-10-16T16:38:14;18.50;99.90
10419;DHT22;5256;48.728;9.140;2022-10-16T16:40:40;18.40;99.90
10419;DHT22;5256;48.728;9.140;2022-10-16T16:43:05;18.30;99.90
10419;DHT22;5256;48.728;9.140;2022-10-16T16:45:35;18.20;99.90
10419;DHT22;5256;48.728;9.140;2022-10-16T16:48:00;18.10;99.90
10419;DHT22;5256;48.728;9.140;2022-10-16T16:50:26;18.10;99.90
10419;DHT22;5256;48.728;9.140;2022-10-16T16:52:51;18.00;99.90
10419;DHT22;5256;48.728;9.140;2022-10-16T16:55:18;18.00;99.90
10419;DHT22;5256;48.728;9.140;2022-10-16T16:57:47;17.90;99.90
10419;DHT22;5256;48.728;9.140;2022-10-16T17:00:13;17.80;99.90
10419;DHT22;5256;48.728;9.140;2022-10-16T17:02:38;17.70;99.90
10419;DHT22;5256;48.728;9.140;2022-10-16T17:05:08;17.60;99.90
10419;DHT22;5256;48.728;9.140;2022-10-16T17:07:34;17.50;99.90
10419;DHT22;5256;48.728;9.140;2022-10-16T17:10:01;17.30;99.90
10419;DHT22;5256;48.728;9.140;2022-10-16T17:12:28;17.10;99.90
10419;DHT22;5256;48.728;9.140;2022-10-16T17:14:54;17.00;99.90
10419;DHT22;5256;48.728;9.140;2022-10-16T17:17:20;16.80;99.90
10419;DHT22;5256;48.728;9.140;2022-10-16T17:19:45;16.60;99.90
10419;DHT22;5256;48.728;9.140;2022-10-16T17:22:11;16.50;99.90
10419;DHT22;5256;48.728;9.140;2022-10-16T17:24:36;16.40;99.90
10419;DHT22;5256;48.728;9.140;2022-10-16T17:27:02;16.40;99.90
10419;DHT22;5256;48.728;9.140;2022-10-16T17:29:28;16.30;99.90
10419;DHT22;5256;48.728;9.140;2022-10-16T17:31:55;16.20;99.90
10419;DHT22;5256;48.728;9.140;2022-10-16T17:34:21;16.10;99.90
10419;DHT22;5256;48.728;9.140;2022-10-16T17:36:46;16.10;99.90